sensor_id;sensor_type;location;lat;lon;timestamp;P1;durP1;ratioP1;P2;durP2;ratioP2
14040;SDS011;7095;51.388;6.196;2022-10-16T00:01:44;8.17;;;4.00;;
14040;SDS011;7095;51.388;6.196;2022-10-16T00:04:13;8.50;;;4.37;;
14040;SDS011;7095;51.388;6.196;2022-10-16T00:06:42;7.57;;;3.90;;
14040;SDS011;7095;51.388;6.196;2022-10-16T00:09:10;8.27;;;4.20;;
14040;SDS011;7095;51.388;6.196;2022-10-16T00:11:39;8.70;;;4.30;;
14040;SDS011;7095;51.388;6.196;2022-10-16T00:14:11;8.53;;;4.07;;
14040;SDS011;7095;51.388;6.196;2022-10-16T00:16:42;10.07;;;4.40;;
14040;SDS011;7095;51.388;6.196;2022-10-16T00:19:11;6.53;;;3.67;;
14040;SDS011;7095;51.388;6.196;2022-10-16T00:21:40;11.87;;;4.20;;
14040;SDS011;7095;51.388;6.196;2022-10-16T00:24:27;9.13;;;4.00;;
14040;SDS011;7095;51.388;6.196;2022-10-16T00:26:56;7.47;;;3.97;;
14040;SDS011;7095;51.388;6.196;2022-10-16T00:29:26;9.87;;;3.77;;
14040;SDS011;7095;51.388;6.196;2022-10-16T00:31:56;8.37;;;3.63;;
14040;SDS011;7095;51.388;6.196;2022-10-16T00:34:26;4.20;;;3.23;;
14040;SDS011;7095;51.388;6.196;2022-10-16T00:36:55;5.10;;;3.50;;
14040;SDS011;7095;51.388;6.196;2022-10-16T00:39:23;5.33;;;3.60;;
14040;SDS011;7095;51.388;6.196;2022-10-16T00:41:52;6.97;;;3.47;;
14040;SDS011;7095;51.388;6.196;2022-10-16T00:47:18;5.67;;;3.10;;
14040;SDS011;7095;51.388;6.196;2022-10-16T00:49:53;5.60;;;3.10;;
14040;SDS011;7095;51.388;6.196;2022-10-16T00:52:25;6.90;;;3.07;;
14040;SDS011;7095;51.388;6.196;2022-10-16T00:54:54;4.97;;;3.10;;
14040;SDS011;7095;51.388;6.196;2022-10-16T00:57:24;6.20;;;2.93;;
14040;SDS011;7095;51.388;6.196;2022-10-16T00:59:59;6.13;;;3.00;;
14040;SDS011;7095;51.388;6.196;2022-10-16T01:02:29;6.97;;;3.00;;
14040;SDS011;7095;51.388;6.196;2022-10-16T01:04:57;6.63;;;3.10;;
14040;SDS011;7095;51.388;6.196;2022-10-16T01:07:30;3.00;;;2.30;;
14040;SDS011;7095;51.388;6.196;2022-10-16T01:10:07;4.00;;;2.83;;
14040;SDS011;7095;51.388;6.196;2022-10-16T01:12:43;4.60;;;3.13;;
14040;SDS011;7095;51.388;6.196;2022-10-16T01:15:18;4.47;;;2.80;;
14040;SDS011;7095;51.388;6.196;2022-10-16T01:17:57;4.87;;;2.70;;
14040;SDS011;7095;51.388;6.196;2022-10-16T01:20:29;4.50;;;2.70;;
14040;SDS011;7095;51.388;6.196;2022-10-16T01:23:06;5.13;;;2.93;;
14040;SDS011;7095;51.388;6.196;2022-10-16T01:25:49;3.60;;;2.67;;
14040;SDS011;7095;51.388;6.196;2022-10-16T01:28:41;4.97;;;3.10;;
14040;SDS011;7095;51.388;6.196;2022-10-16T01:31:14;5.43;;;3.80;;
14040;SDS011;7095;51.388;6.196;2022-10-16T01:33:45;8.13;;;3.47;;
14040;SDS011;7095;51.388;6.196;2022-10-16T01:36:21;8.00;;;3.23;;
14040;SDS011;7095;51.388;6.196;2022-10-16T01:38:56;7.40;;;2.87;;
14040;SDS011;7095;51.388;6.196;2022-10-16T01:41:33;4.63;;;2.97;;
14040;SDS011;7095;51.388;6.196;2022-10-16T01:44:08;6.07;;;3.13;;
14040;SDS011;7095;51.388;6.196;2022-10-16T01:46:42;5.40;;;2.90;;
14040;SDS011;7095;51.388;6.196;2022-10-16T01:49:14;4.40;;;2.90;;
14040;SDS011;7095;51.388;6.196;2022-10-16T01:51:47;4.13;;;2.83;;
14040;SDS011;7095;51.388;6.196;2022-10-16T01:54:21;3.40;;;2.80;;
14040;SDS011;7095;51.388;6.196;2022-10-16T01:56:54;6.10;;;3.20;;
14040;SDS011;7095;51.388;6.196;2022-10-16T01:59:26;9.50;;;2.83;;
14040;SDS011;7095;51.388;6.196;2022-10-16T02:02:00;4.57;;;2.70;;
14040;SDS011;7095;51.388;6.196;2022-10-16T02:04:36;8.37;;;3.00;;
14040;SDS011;7095;51.388;6.196;2022-10-16T02:07:08;3.23;;;2.40;;
14040;SDS011;7095;51.388;6.196;2022-10-16T02:09:37;2.60;;;2.30;;
14040;SDS011;7095;51.388;6.196;2022-10-16T02:12:07;5.90;;;2.60;;
14040;SDS011;7095;51.388;6.196;2022-10-16T02:14:43;5.07;;;2.90;;
14040;SDS011;7095;51.388;6.196;2022-10-16T02:17:13;4.80;;;2.23;;
14040;SDS011;7095;51.388;6.196;2022-10-16T02:19:44;5.17;;;2.37;;
14040;SDS011;7095;51.388;6.196;2022-10-16T02:22:16;5.73;;;2.40;;
14040;SDS011;7095;51.388;6.196;2022-10-16T02:24:51;7.47;;;2.50;;
14040;SDS011;7095;51.388;6.196;2022-10-16T02:27:26;7.00;;;2.70;;
14040;SDS011;7095;51.388;6.196;2022-10-16T02:30:07;6.27;;;2.20;;
14040;SDS011;7095;51.388;6.196;2022-10-16T02:32:42;3.13;;;2.30;;
14040;SDS011;7095;51.388;6.196;2022-10-16T02:35:13;6.00;;;2.60;;
14040;SDS011;7095;51.388;6.196;2022-10-16T02:37:44;4.67;;;2.20;;
14040;SDS011;7095;51.388;6.196;2022-10-16T02:40:14;4.30;;;2.10;;
14040;SDS011;7095;51.388;6.196;2022-10-16T02:42:50;4.10;;;2.20;;
14040;SDS011;7095;51.388;6.196;2022-10-16T02:45:22;5.33;;;2.03;;
14040;SDS011;7095;51.388;6.196;2022-10-16T02:47:51;5.17;;;1.97;;
14040;SDS011;7095;51.388;6.196;2022-10-16T02:50:20;6.63;;;2.50;;
14040;SDS011;7095;51.388;6.196;2022-10-16T02:52:49;2.63;;;2.13;;
14040;SDS011;7095;51.388;6.196;2022-10-16T02:55:17;6.93;;;2.47;;
14040;SDS011;7095;51.388;6.196;2022-10-16T02:57:46;5.17;;;2.60;;
14040;SDS011;7095;51.388;6.196;2022-10-16T03:00:16;4.17;;;2.10;;
14040;SDS011;7095;51.388;6.196;2022-10-16T03:02:46;2.53;;;2.10;;
14040;SDS011;7095;51.388;6.196;2022-10-16T03:05:15;4.93;;;2.20;;
14040;SDS011;7095;51.388;6.196;2022-10-16T03:07:44;3.77;;;2.07;;
14040;SDS011;7095;51.388;6.196;2022-10-16T03:10:13;7.20;;;2.30;;
14040;SDS011;7095;51.388;6.196;2022-10-16T03:12:42;3.67;;;1.97;;
14040;SDS011;7095;51.388;6.196;2022-10-16T03:15:10;3.87;;;2.40;;
14040;SDS011;7095;51.388;6.196;2022-10-16T03:17:38;1.90;;;1.80;;
14040;SDS011;7095;51.388;6.196;2022-10-16T03:20:09;5.90;;;2.93;;
14040;SDS011;7095;51.388;6.196;2022-10-16T03:22:37;2.87;;;2.00;;
14040;SDS011;7095;51.388;6.196;2022-10-16T03:25:06;6.23;;;2.23;;
14040;SDS011;7095;51.388;6.196;2022-10-16T03:27:35;3.83;;;2.27;;
14040;SDS011;7095;51.388;6.196;2022-10-16T03:30:05;4.40;;;2.37;;
14040;SDS011;7095;51.388;6.196;2022-10-16T03:32:34;4.90;;;1.67;;
14040;SDS011;7095;51.388;6.196;2022-10-16T03:35:03;6.23;;;2.20;;
14040;SDS011;7095;51.388;6.196;2022-10-16T03:37:35;4.57;;;2.03;;
14040;SDS011;7095;51.388;6.196;2022-10-16T03:40:04;4.67;;;1.90;;
14040;SDS011;7095;51.388;6.196;2022-10-16T03:42:33;4.83;;;2.03;;
14040;SDS011;7095;51.388;6.196;2022-10-16T03:45:03;4.80;;;2.50;;
14040;SDS011;7095;51.388;6.196;2022-10-16T03:47:32;4.00;;;1.80;;
14040;SDS011;7095;51.388;6.196;2022-10-16T03:50:00;5.63;;;2.10;;
14040;SDS011;7095;51.388;6.196;2022-10-16T03:52:29;5.30;;;2.20;;
14040;SDS011;7095;51.388;6.196;2022-10-16T03:55:00;4.30;;;1.90;;
14040;SDS011;7095;51.388;6.196;2022-10-16T03:57:28;3.10;;;2.00;;
14040;SDS011;7095;51.388;6.196;2022-10-16T03:59:57;4.37;;;2.10;;
14040;SDS011;7095;51.388;6.196;2022-10-16T04:02:25;6.70;;;1.87;;
14040;SDS011;7095;51.388;6.196;2022-10-16T04:04:53;1.90;;;1.47;;
14040;SDS011;7095;51.388;6.196;2022-10-16T04:07:22;3.83;;;2.07;;
14040;SDS011;7095;51.388;6.196;2022-10-16T04:09:51;2.03;;;1.73;;
14040;SDS011;7095;51.388;6.196;2022-10-16T04:12:25;3.30;;;2.10;;
14040;SDS011;7095;51.388;6.196;2022-10-16T04:14:54;3.77;;;2.10;;
14040;SDS011;7095;51.388;6.196;2022-10-16T04:17:23;4.20;;;1.87;;
14040;SDS011;7095;51.388;6.196;2022-10-16T04:19:52;3.73;;;1.90;;
14040;SDS011;7095;51.388;6.196;2022-10-16T04:22:20;7.00;;;1.80;;
14040;SDS011;7095;51.388;6.196;2022-10-16T04:24:49;2.80;;;2.10;;
14040;SDS011;7095;51.388;6.196;2022-10-16T04:27:18;3.93;;;2.20;;
14040;SDS011;7095;51.388;6.196;2022-10-16T04:29:49;3.10;;;2.20;;
14040;SDS011;7095;51.388;6.196;2022-10-16T04:32:18;7.90;;;2.30;;
14040;SDS011;7095;51.388;6.196;2022-10-16T04:34:46;4.70;;;2.37;;
14040;SDS011;7095;51.388;6.196;2022-10-16T04:37:15;2.93;;;1.63;;
14040;SDS011;7095;51.388;6.196;2022-10-16T04:39:44;3.67;;;2.07;;
14040;SDS011;7095;51.388;6.196;2022-10-16T04:42:13;6.23;;;2.50;;
14040;SDS011;7095;51.388;6.196;2022-10-16T04:44:42;3.10;;;1.90;;
14040;SDS011;7095;51.388;6.196;2022-10-16T04:47:12;5.53;;;2.27;;
14040;SDS011;7095;51.388;6.196;2022-10-16T04:49:41;5.27;;;2.27;;
14040;SDS011;7095;51.388;6.196;2022-10-16T04:52:09;2.80;;;2.40;;
14040;SDS011;7095;51.388;6.196;2022-10-16T04:54:39;6.73;;;2.53;;
14040;SDS011;7095;51.388;6.196;2022-10-16T04:57:07;5.20;;;2.60;;
14040;SDS011;7095;51.388;6.196;2022-10-16T04:59:36;4.80;;;2.63;;
14040;SDS011;7095;51.388;6.196;2022-10-16T05:02:04;3.00;;;1.83;;
14040;SDS011;7095;51.388;6.196;2022-10-16T05:04:35;4.90;;;2.20;;
14040;SDS011;7095;51.388;6.196;2022-10-16T05:07:03;5.77;;;2.10;;
14040;SDS011;7095;51.388;6.196;2022-10-16T05:09:32;4.37;;;2.17;;
14040;SDS011;7095;51.388;6.196;2022-10-16T05:12:01;4.17;;;2.63;;
14040;SDS011;7095;51.388;6.196;2022-10-16T05:14:30;3.27;;;2.13;;
14040;SDS011;7095;51.388;6.196;2022-10-16T05:17:00;4.87;;;2.00;;
14040;SDS011;7095;51.388;6.196;2022-10-16T05:19:28;8.10;;;2.53;;
14040;SDS011;7095;51.388;6.196;2022-10-16T05:21:58;2.83;;;2.37;;
14040;SDS011;7095;51.388;6.196;2022-10-16T05:24:27;5.47;;;2.50;;
14040;SDS011;7095;51.388;6.196;2022-10-16T05:26:56;5.77;;;2.40;;
14040;SDS011;7095;51.388;6.196;2022-10-16T05:29:25;4.37;;;2.40;;
14040;SDS011;7095;51.388;6.196;2022-10-16T05:31:53;3.50;;;2.33;;
14040;SDS011;7095;51.388;6.196;2022-10-16T05:34:22;4.23;;;2.23;;
14040;SDS011;7095;51.388;6.196;2022-10-16T05:36:51;4.80;;;2.17;;
14040;SDS011;7095;51.388;6.196;2022-10-16T05:39:21;5.37;;;2.43;;
14040;SDS011;7095;51.388;6.196;2022-10-16T05:41:49;6.10;;;2.57;;
14040;SDS011;7095;51.388;6.196;2022-10-16T05:44:19;4.73;;;2.10;;
14040;SDS011;7095;51.388;6.196;2022-10-16T05:46:47;3.53;;;2.43;;
14040;SDS011;7095;51.388;6.196;2022-10-16T05:49:16;4.50;;;2.03;;
14040;SDS011;7095;51.388;6.196;2022-10-16T05:51:44;3.33;;;2.40;;
14040;SDS011;7095;51.388;6.196;2022-10-16T05:54:13;5.93;;;2.47;;
14040;SDS011;7095;51.388;6.196;2022-10-16T05:56:44;5.27;;;2.57;;
14040;SDS011;7095;51.388;6.196;2022-10-16T05:59:12;10.40;;;2.87;;
14040;SDS011;7095;51.388;6.196;2022-10-16T06:01:41;4.47;;;2.23;;
14040;SDS011;7095;51.388;6.196;2022-10-16T06:04:10;3.47;;;2.83;;
14040;SDS011;7095;51.388;6.196;2022-10-16T06:06:38;4.87;;;3.03;;
14040;SDS011;7095;51.388;6.196;2022-10-16T06:09:07;3.03;;;2.70;;
14040;SDS011;7095;51.388;6.196;2022-10-16T06:11:37;5.27;;;3.60;;
14040;SDS011;7095;51.388;6.196;2022-10-16T06:14:07;7.67;;;3.17;;
14040;SDS011;7095;51.388;6.196;2022-10-16T06:16:37;6.47;;;3.03;;
14040;SDS011;7095;51.388;6.196;2022-10-16T06:19:06;10.43;;;3.70;;
14040;SDS011;7095;51.388;6.196;2022-10-16T06:21:35;5.60;;;3.20;;
14040;SDS011;7095;51.388;6.196;2022-10-16T06:24:04;9.83;;;3.53;;
14040;SDS011;7095;51.388;6.196;2022-10-16T06:26:32;5.20;;;3.37;;
14040;SDS011;7095;51.388;6.196;2022-10-16T06:29:01;7.03;;;3.50;;
14040;SDS011;7095;51.388;6.196;2022-10-16T06:31:32;7.50;;;3.20;;
14040;SDS011;7095;51.388;6.196;2022-10-16T06:34:00;4.80;;;3.20;;
14040;SDS011;7095;51.388;6.196;2022-10-16T06:36:31;3.80;;;3.40;;
14040;SDS011;7095;51.388;6.196;2022-10-16T06:39:00;5.20;;;3.23;;
14040;SDS011;7095;51.388;6.196;2022-10-16T06:41:28;6.97;;;3.93;;
14040;SDS011;7095;51.388;6.196;2022-10-16T06:44:06;5.17;;;3.50;;
14040;SDS011;7095;51.388;6.196;2022-10-16T06:46:38;5.80;;;3.90;;
14040;SDS011;7095;51.388;6.196;2022-10-16T06:49:07;6.57;;;3.60;;
14040;SDS011;7095;51.388;6.196;2022-10-16T06:51:36;5.23;;;3.70;;
14040;SDS011;7095;51.388;6.196;2022-10-16T06:54:09;5.40;;;3.43;;
14040;SDS011;7095;51.388;6.196;2022-10-16T06:56:38;8.00;;;3.70;;
14040;SDS011;7095;51.388;6.196;2022-10-16T06:59:06;8.37;;;4.63;;
14040;SDS011;7095;51.388;6.196;2022-10-16T07:01:35;4.30;;;3.80;;
14040;SDS011;7095;51.388;6.196;2022-10-16T07:04:05;7.27;;;4.23;;
14040;SDS011;7095;51.388;6.196;2022-10-16T07:06:33;5.97;;;4.13;;
14040;SDS011;7095;51.388;6.196;2022-10-16T07:09:04;10.10;;;4.70;;
14040;SDS011;7095;51.388;6.196;2022-10-16T07:11:34;7.27;;;4.50;;
14040;SDS011;7095;51.388;6.196;2022-10-16T07:14:04;9.17;;;4.50;;
14040;SDS011;7095;51.388;6.196;2022-10-16T07:16:33;5.07;;;4.30;;
14040;SDS011;7095;51.388;6.196;2022-10-16T07:19:02;6.00;;;4.93;;
14040;SDS011;7095;51.388;6.196;2022-10-16T07:21:35;5.07;;;4.40;;
14040;SDS011;7095;51.388;6.196;2022-10-16T07:24:04;6.33;;;5.10;;
14040;SDS011;7095;51.388;6.196;2022-10-16T07:26:34;5.97;;;4.60;;
14040;SDS011;7095;51.388;6.196;2022-10-16T07:29:06;5.33;;;4.33;;
14040;SDS011;7095;51.388;6.196;2022-10-16T07:31:43;8.40;;;4.60;;
14040;SDS011;7095;51.388;6.196;2022-10-16T07:34:12;5.83;;;4.77;;
14040;SDS011;7095;51.388;6.196;2022-10-16T07:36:44;9.27;;;4.27;;
14040;SDS011;7095;51.388;6.196;2022-10-16T07:39:15;5.13;;;4.37;;
14040;SDS011;7095;51.388;6.196;2022-10-16T07:41:44;5.87;;;3.30;;
14040;SDS011;7095;51.388;6.196;2022-10-16T07:44:12;6.27;;;4.20;;
14040;SDS011;7095;51.388;6.196;2022-10-16T07:46:41;9.80;;;4.27;;
14040;SDS011;7095;51.388;6.196;2022-10-16T07:49:10;6.90;;;3.90;;
14040;SDS011;7095;51.388;6.196;2022-10-16T07:51:38;4.33;;;3.40;;
14040;SDS011;7095;51.388;6.196;2022-10-16T07:54:09;11.53;;;4.73;;
14040;SDS011;7095;51.388;6.196;2022-10-16T07:56:38;7.17;;;3.30;;
14040;SDS011;7095;51.388;6.196;2022-10-16T07:59:09;6.33;;;3.67;;
14040;SDS011;7095;51.388;6.196;2022-10-16T08:01:39;6.53;;;3.60;;
14040;SDS011;7095;51.388;6.196;2022-10-16T08:04:11;5.40;;;3.27;;
14040;SDS011;7095;51.388;6.196;2022-10-16T08:06:39;7.90;;;3.37;;
14040;SDS011;7095;51.388;6.196;2022-10-16T08:09:10;7.10;;;2.80;;
14040;SDS011;7095;51.388;6.196;2022-10-16T08:11:39;7.77;;;3.27;;
14040;SDS011;7095;51.388;6.196;2022-10-16T08:14:07;5.33;;;3.17;;
14040;SDS011;7095;51.388;6.196;2022-10-16T08:16:37;5.63;;;3.00;;
14040;SDS011;7095;51.388;6.196;2022-10-16T08:19:06;5.47;;;2.90;;
14040;SDS011;7095;51.388;6.196;2022-10-16T08:21:34;8.90;;;2.90;;
14040;SDS011;7095;51.388;6.196;2022-10-16T08:24:03;5.63;;;3.07;;
14040;SDS011;7095;51.388;6.196;2022-10-16T08:26:34;5.97;;;3.00;;
14040;SDS011;7095;51.388;6.196;2022-10-16T08:29:02;3.30;;;2.70;;
14040;SDS011;7095;51.388;6.196;2022-10-16T08:31:32;3.13;;;2.80;;
14040;SDS011;7095;51.388;6.196;2022-10-16T08:34:01;7.97;;;2.87;;
14040;SDS011;7095;51.388;6.196;2022-10-16T08:36:30;8.07;;;3.00;;
14040;SDS011;7095;51.388;6.196;2022-10-16T08:38:58;3.10;;;2.50;;
14040;SDS011;7095;51.388;6.196;2022-10-16T08:41:40;2.63;;;2.23;;
14040;SDS011;7095;51.388;6.196;2022-10-16T08:47:34;4.47;;;2.10;;
14040;SDS011;7095;51.388;6.196;2022-10-16T08:50:11;8.27;;;2.63;;
14040;SDS011;7095;51.388;6.196;2022-10-16T08:52:41;4.00;;;1.97;;
14040;SDS011;7095;51.388;6.196;2022-10-16T08:55:17;5.17;;;2.03;;
14040;SDS011;7095;51.388;6.196;2022-10-16T08:57:58;4.97;;;2.20;;
14040;SDS011;7095;51.388;6.196;2022-10-16T09:00:28;9.10;;;2.30;;
14040;SDS011;7095;51.388;6.196;2022-10-16T09:03:00;6.57;;;1.97;;
14040;SDS011;7095;51.388;6.196;2022-10-16T09:08:31;2.50;;;1.47;;
14040;SDS011;7095;51.388;6.196;2022-10-16T09:11:12;5.43;;;2.00;;
14040;SDS011;7095;51.388;6.196;2022-10-16T09:13:50;3.60;;;1.70;;
14040;SDS011;7095;51.388;6.196;2022-10-16T09:16:24;4.83;;;2.03;;
14040;SDS011;7095;51.388;6.196;2022-10-16T09:19:00;6.03;;;2.07;;
14040;SDS011;7095;51.388;6.196;2022-10-16T09:21:37;4.13;;;1.70;;
14040;SDS011;7095;51.388;6.196;2022-10-16T09:24:10;3.07;;;1.37;;
14040;SDS011;7095;51.388;6.196;2022-10-16T09:26:40;5.90;;;2.13;;
14040;SDS011;7095;51.388;6.196;2022-10-16T09:29:11;5.63;;;2.03;;
14040;SDS011;7095;51.388;6.196;2022-10-16T09:31:43;2.97;;;1.17;;
14040;SDS011;7095;51.388;6.196;2022-10-16T09:34:17;3.40;;;1.63;;
14040;SDS011;7095;51.388;6.196;2022-10-16T09:36:54;4.17;;;1.60;;
14040;SDS011;7095;51.388;6.196;2022-10-16T09:39:25;2.43;;;1.37;;
14040;SDS011;7095;51.388;6.196;2022-10-16T09:41:54;6.40;;;1.67;;
14040;SDS011;7095;51.388;6.196;2022-10-16T09:44:26;6.50;;;1.90;;
14040;SDS011;7095;51.388;6.196;2022-10-16T09:47:01;6.07;;;1.73;;
14040;SDS011;7095;51.388;6.196;2022-10-16T09:49:32;2.90;;;1.67;;
14040;SDS011;7095;51.388;6.196;2022-10-16T09:52:04;5.37;;;1.70;;
14040;SDS011;7095;51.388;6.196;2022-10-16T09:54:34;6.33;;;1.87;;
14040;SDS011;7095;51.388;6.196;2022-10-16T09:57:06;5.27;;;2.40;;
14040;SDS011;7095;51.388;6.196;2022-10-16T09:59:46;3.50;;;1.50;;
14040;SDS011;7095;51.388;6.196;2022-10-16T10:02:16;4.70;;;1.40;;
14040;SDS011;7095;51.388;6.196;2022-10-16T10:04:49;5.17;;;1.40;;
14040;SDS011;7095;51.388;6.196;2022-10-16T10:07:23;5.03;;;1.20;;
14040;SDS011;7095;51.388;6.196;2022-10-16T10:09:55;8.50;;;1.57;;
14040;SDS011;7095;51.388;6.196;2022-10-16T10:12:25;3.63;;;1.40;;
14040;SDS011;7095;51.388;6.196;2022-10-16T10:14:58;6.23;;;2.37;;
14040;SDS011;7095;51.388;6.196;2022-10-16T10:17:33;5.43;;;2.50;;
14040;SDS011;7095;51.388;6.196;2022-10-16T10:20:13;9.07;;;2.67;;
14040;SDS011;7095;51.388;6.196;2022-10-16T10:22:50;5.33;;;1.53;;
14040;SDS011;7095;51.388;6.196;2022-10-16T10:25:19;5.83;;;2.07;;
14040;SDS011;7095;51.388;6.196;2022-10-16T10:28:07;3.33;;;1.17;;
14040;SDS011;7095;51.388;6.196;2022-10-16T10:30:50;4.67;;;1.53;;
14040;SDS011;7095;51.388;6.196;2022-10-16T10:33:28;4.90;;;1.57;;
14040;SDS011;7095;51.388;6.196;2022-10-16T10:36:09;5.67;;;1.53;;
14040;SDS011;7095;51.388;6.196;2022-10-16T10:38:47;4.53;;;1.13;;
14040;SDS011;7095;51.388;6.196;2022-10-16T10:44:52;6.90;;;1.60;;
14040;SDS011;7095;51.388;6.196;2022-10-16T10:47:31;6.27;;;1.40;;
14040;SDS011;7095;51.388;6.196;2022-10-16T10:50:14;2.53;;;1.43;;
14040;SDS011;7095;51.388;6.196;2022-10-16T10:52:51;5.17;;;1.67;;
14040;SDS011;7095;51.388;6.196;2022-10-16T10:55:28;6.03;;;1.40;;
14040;SDS011;7095;51.388;6.196;2022-10-16T10:58:10;4.77;;;1.47;;
14040;SDS011;7095;51.388;6.196;2022-10-16T11:01:03;5.43;;;2.07;;
14040;SDS011;7095;51.388;6.196;2022-10-16T11:03:41;3.17;;;1.53;;
14040;SDS011;7095;51.388;6.196;2022-10-16T11:06:25;8.43;;;2.13;;
14040;SDS011;7095;51.388;6.196;2022-10-16T11:08:58;5.10;;;1.73;;
14040;SDS011;7095;51.388;6.196;2022-10-16T11:11:31;1.60;;;0.93;;
14040;SDS011;7095;51.388;6.196;2022-10-16T11:14:08;6.67;;;1.50;;
14040;SDS011;7095;51.388;6.196;2022-10-16T11:16:44;4.33;;;1.33;;
14040;SDS011;7095;51.388;6.196;2022-10-16T11:19:25;6.87;;;1.53;;
14040;SDS011;7095;51.388;6.196;2022-10-16T11:22:04;10.70;;;2.10;;
14040;SDS011;7095;51.388;6.196;2022-10-16T11:24:41;6.90;;;2.00;;
14040;SDS011;7095;51.388;6.196;2022-10-16T11:27:14;5.93;;;1.70;;
14040;SDS011;7095;51.388;6.196;2022-10-16T11:29:47;7.87;;;1.47;;
14040;SDS011;7095;51.388;6.196;2022-10-16T11:32:23;8.30;;;1.63;;
14040;SDS011;7095;51.388;6.196;2022-10-16T11:35:02;6.53;;;1.47;;
14040;SDS011;7095;51.388;6.196;2022-10-16T11:37:39;7.47;;;1.70;;
14040;SDS011;7095;51.388;6.196;2022-10-16T11:40:16;7.63;;;1.57;;
14040;SDS011;7095;51.388;6.196;2022-10-16T11:42:51;3.90;;;1.33;;
14040;SDS011;7095;51.388;6.196;2022-10-16T11:45:28;4.60;;;1.50;;
14040;SDS011;7095;51.388;6.196;2022-10-16T11:48:05;6.43;;;1.57;;
14040;SDS011;7095;51.388;6.196;2022-10-16T11:50:45;6.73;;;1.57;;
14040;SDS011;7095;51.388;6.196;2022-10-16T11:53:21;3.33;;;1.70;;
14040;SDS011;7095;51.388;6.196;2022-10-16T11:55:57;3.97;;;1.33;;
14040;SDS011;7095;51.388;6.196;2022-10-16T11:58:27;4.77;;;1.20;;
14040;SDS011;7095;51.388;6.196;2022-10-16T12:01:03;5.87;;;0.93;;
14040;SDS011;7095;51.388;6.196;2022-10-16T12:03:46;3.53;;;1.40;;
14040;SDS011;7095;51.388;6.196;2022-10-16T12:06:29;3.67;;;1.30;;
14040;SDS011;7095;51.388;6.196;2022-10-16T12:09:02;2.83;;;0.83;;
14040;SDS011;7095;51.388;6.196;2022-10-16T12:11:33;3.93;;;1.17;;
14040;SDS011;7095;51.388;6.196;2022-10-16T12:14:05;4.60;;;1.30;;
14040;SDS011;7095;51.388;6.196;2022-10-16T12:16:53;5.10;;;0.93;;
14040;SDS011;7095;51.388;6.196;2022-10-16T12:19:26;5.20;;;1.30;;
14040;SDS011;7095;51.388;6.196;2022-10-16T12:21:59;4.47;;;1.03;;
14040;SDS011;7095;51.388;6.196;2022-10-16T12:24:34;6.60;;;1.40;;
14040;SDS011;7095;51.388;6.196;2022-10-16T12:27:05;2.50;;;1.20;;
14040;SDS011;7095;51.388;6.196;2022-10-16T12:29:48;4.20;;;1.27;;
14040;SDS011;7095;51.388;6.196;2022-10-16T12:32:27;4.03;;;1.00;;
14040;SDS011;7095;51.388;6.196;2022-10-16T12:35:17;3.17;;;1.27;;
14040;SDS011;7095;51.388;6.196;2022-10-16T12:37:49;3.37;;;1.43;;
14040;SDS011;7095;51.388;6.196;2022-10-16T12:40:27;3.63;;;1.60;;
14040;SDS011;7095;51.388;6.196;2022-10-16T12:42:57;6.13;;;1.50;;
14040;SDS011;7095;51.388;6.196;2022-10-16T12:45:28;4.47;;;1.10;;
14040;SDS011;7095;51.388;6.196;2022-10-16T12:48:00;2.50;;;0.70;;
14040;SDS011;7095;51.388;6.196;2022-10-16T12:50:31;2.73;;;1.07;;
14040;SDS011;7095;51.388;6.196;2022-10-16T12:53:16;4.03;;;1.03;;
14040;SDS011;7095;51.388;6.196;2022-10-16T12:55:50;4.00;;;1.03;;
14040;SDS011;7095;51.388;6.196;2022-10-16T12:58:32;2.53;;;0.80;;
14040;SDS011;7095;51.388;6.196;2022-10-16T13:01:12;1.47;;;0.77;;
14040;SDS011;7095;51.388;6.196;2022-10-16T13:04:04;1.93;;;0.90;;
14040;SDS011;7095;51.388;6.196;2022-10-16T13:06:55;3.27;;;1.07;;
14040;SDS011;7095;51.388;6.196;2022-10-16T13:09:40;1.70;;;1.03;;
14040;SDS011;7095;51.388;6.196;2022-10-16T13:12:37;5.83;;;1.23;;
14040;SDS011;7095;51.388;6.196;2022-10-16T13:15:28;2.60;;;1.10;;
14040;SDS011;7095;51.388;6.196;2022-10-16T13:18:18;5.13;;;1.27;;
14040;SDS011;7095;51.388;6.196;2022-10-16T13:21:00;3.83;;;0.83;;
14040;SDS011;7095;51.388;6.196;2022-10-16T13:23:36;3.27;;;1.07;;
14040;SDS011;7095;51.388;6.196;2022-10-16T13:26:19;2.43;;;1.03;;
14040;SDS011;7095;51.388;6.196;2022-10-16T13:28:58;7.33;;;1.80;;
14040;SDS011;7095;51.388;6.196;2022-10-16T13:31:28;4.87;;;0.90;;
14040;SDS011;7095;51.388;6.196;2022-10-16T13:34:00;4.33;;;1.20;;
14040;SDS011;7095;51.388;6.196;2022-10-16T13:36:34;5.10;;;1.30;;
14040;SDS011;7095;51.388;6.196;2022-10-16T13:39:09;3.20;;;1.33;;
14040;SDS011;7095;51.388;6.196;2022-10-16T13:41:41;2.73;;;1.20;;
14040;SDS011;7095;51.388;6.196;2022-10-16T13:44:12;4.33;;;1.40;;
14040;SDS011;7095;51.388;6.196;2022-10-16T13:46:45;3.80;;;1.13;;
14040;SDS011;7095;51.388;6.196;2022-10-16T13:49:15;3.13;;;1.20;;
14040;SDS011;7095;51.388;6.196;2022-10-16T13:51:53;6.80;;;1.13;;
14040;SDS011;7095;51.388;6.196;2022-10-16T13:54:23;6.00;;;1.43;;
14040;SDS011;7095;51.388;6.196;2022-10-16T13:56:55;6.57;;;1.57;;
14040;SDS011;7095;51.388;6.196;2022-10-16T13:59:45;3.63;;;0.90;;
14040;SDS011;7095;51.388;6.196;2022-10-16T14:02:19;1.93;;;0.77;;
14040;SDS011;7095;51.388;6.196;2022-10-16T14:04:54;5.20;;;1.10;;
14040;SDS011;7095;51.388;6.196;2022-10-16T14:07:26;3.33;;;1.07;;
14040;SDS011;7095;51.388;6.196;2022-10-16T14:09:58;3.87;;;1.37;;
14040;SDS011;7095;51.388;6.196;2022-10-16T14:12:31;4.90;;;1.43;;
14040;SDS011;7095;51.388;6.196;2022-10-16T14:15:01;4.17;;;1.10;;
14040;SDS011;7095;51.388;6.196;2022-10-16T14:17:32;6.50;;;1.10;;
14040;SDS011;7095;51.388;6.196;2022-10-16T14:20:04;7.30;;;1.13;;
14040;SDS011;7095;51.388;6.196;2022-10-16T14:22:35;2.90;;;1.10;;
14040;SDS011;7095;51.388;6.196;2022-10-16T14:25:16;3.10;;;1.03;;
14040;SDS011;7095;51.388;6.196;2022-10-16T14:27:58;3.47;;;1.13;;
14040;SDS011;7095;51.388;6.196;2022-10-16T14:30:29;3.93;;;1.20;;
14040;SDS011;7095;51.388;6.196;2022-10-16T14:32:59;2.77;;;1.07;;
14040;SDS011;7095;51.388;6.196;2022-10-16T14:35:30;3.33;;;1.20;;
14040;SDS011;7095;51.388;6.196;2022-10-16T14:38:02;3.97;;;1.60;;
14040;SDS011;7095;51.388;6.196;2022-10-16T14:40:33;4.40;;;1.30;;
14040;SDS011;7095;51.388;6.196;2022-10-16T14:43:05;4.10;;;1.20;;
14040;SDS011;7095;51.388;6.196;2022-10-16T14:45:34;6.53;;;1.57;;
14040;SDS011;7095;51.388;6.196;2022-10-16T14:48:05;5.67;;;0.90;;
14040;SDS011;7095;51.388;6.196;2022-10-16T14:50:45;4.30;;;1.13;;
14040;SDS011;7095;51.388;6.196;2022-10-16T14:53:14;7.33;;;1.53;;
14040;SDS011;7095;51.388;6.196;2022-10-16T14:55:43;6.17;;;1.33;;
14040;SDS011;7095;51.388;6.196;2022-10-16T14:58:15;4.43;;;1.00;;
14040;SDS011;7095;51.388;6.196;2022-10-16T15:00:45;6.77;;;1.00;;
14040;SDS011;7095;51.388;6.196;2022-10-16T15:03:15;4.43;;;1.27;;
14040;SDS011;7095;51.388;6.196;2022-10-16T15:05:44;3.37;;;1.07;;
14040;SDS011;7095;51.388;6.196;2022-10-16T15:08:14;3.17;;;1.10;;
14040;SDS011;7095;51.388;6.196;2022-10-16T15:10:43;3.93;;;1.30;;
14040;SDS011;7095;51.388;6.196;2022-10-16T15:13:12;6.07;;;2.20;;
14040;SDS011;7095;51.388;6.196;2022-10-16T15:15:43;5.63;;;2.20;;
14040;SDS011;7095;51.388;6.196;2022-10-16T15:18:13;3.63;;;1.20;;
14040;SDS011;7095;51.388;6.196;2022-10-16T15:20:47;2.87;;;1.00;;
14040;SDS011;7095;51.388;6.196;2022-10-16T15:23:18;9.20;;;1.10;;
14040;SDS011;7095;51.388;6.196;2022-10-16T15:25:49;3.40;;;1.43;;
14040;SDS011;7095;51.388;6.196;2022-10-16T15:28:21;8.73;;;1.23;;
14040;SDS011;7095;51.388;6.196;2022-10-16T15:30:52;4.07;;;1.43;;
14040;SDS011;7095;51.388;6.196;2022-10-16T15:33:23;2.57;;;1.20;;
14040;SDS011;7095;51.388;6.196;2022-10-16T15:36:02;5.83;;;1.47;;
14040;SDS011;7095;51.388;6.196;2022-10-16T15:38:31;6.43;;;1.27;;
14040;SDS011;7095;51.388;6.196;2022-10-16T15:41:00;4.87;;;1.30;;
14040;SDS011;7095;51.388;6.196;2022-10-16T15:43:30;7.07;;;1.87;;
14040;SDS011;7095;51.388;6.196;2022-10-16T15:46:00;5.10;;;1.40;;